Time;durP1;ratioP1;P1;durP2;ratioP2;P2;SDS_P1;SDS_P2;PMS_P1;PMS_P2;Temp;Humidity;BMP_temperature;BMP_pressure;BME280_temperature;BME280_humidity;BME280_pressure;Samples;Min_cycle;Max_cycle;Signal;HPM_P1;HPM_P2
2022/09/23 00:02:13;;;;;;;;;;;;;;;8.89;59.67;100170.41;4371054;32;20312;-95
2022/09/23 00:04:38;;;;;;;;;;;;;;;8.99;59.68;100160.69;4372188;32;19998;-96
2022/09/23 00:07:03;;;;;;;;;;;;;;;8.65;59.66;100174.31;4385646;32;19993;-94
2022/09/23 00:09:28;;;;;;;;;;;;;;;8.67;59.66;100164.75;4382397;32;20014;-95
2022/09/23 00:11:54;;;;;;;;;;;;;;;8.63;59.66;100172.63;4370458;32;20009;-94
2022/09/23 00:14:20;;;;;;;;;;;;;;;8.49;59.65;100172.84;4367896;32;20037;-94
2022/09/23 00:16:45;;;;;;;;;;;;;;;8.68;59.66;100168.19;4370168;32;20002;-93
2022/09/23 00:19:10;;;;;;;;;;;;;;;8.50;59.65;100167.62;4370221;32;20248;-93
2022/09/23 00:21:36;;;;;;;;;;;;;;;8.50;59.65;100164.16;4366876;32;23482;-93
2022/09/23 00:24:01;;;;;;;;;;;;;;;8.67;59.66;100159.56;4355948;32;20278;-92
2022/09/23 00:26:26;;;;;;;;;;;;;;;8.41;59.65;100154.81;4367655;32;20073;-93
2022/09/23 00:28:52;;;;;;;;;;;;;;;8.46;59.66;100158.19;4369537;32;19994;-92
2022/09/23 00:31:18;;;;;;;;;;;;;;;8.48;59.65;100156.41;4383490;32;20082;-92
2022/09/23 00:33:43;;;;;;;;;;;;;;;8.37;59.65;100150.56;4361503;32;19979;-93
2022/09/23 00:36:15;;;;;;;;;;;;;;;8.46;59.66;100145.22;4375119;32;20006;-93
2022/09/23 00:38:40;;;;;;;;;;;;;;;8.50;59.65;100146.00;4373173;32;19979;-93
2022/09/23 00:41:06;;;;;;;;;;;;;;;8.25;59.64;100146.38;4358366;32;19993;-91
2022/09/23 00:43:35;;;;;;;;;;;;;;;8.40;59.65;100142.72;4381058;32;20052;-91
2022/09/23 00:46:01;;;;;;;;;;;;;;;8.22;59.64;100141.25;4366595;32;20348;-91
2022/09/23 00:48:26;;;;;;;;;;;;;;;8.05;59.62;100142.44;4380205;32;27352;-92
2022/09/23 00:50:51;;;;;;;;;;;;;;;8.27;59.64;100134.25;4368030;32;19986;-92
2022/09/23 00:53:18;;;;;;;;;;;;;;;8.49;59.65;100137.38;4365578;32;22931;-92
2022/09/23 00:55:47;;;;;;;;;;;;;;;8.34;59.65;100136.78;4368991;32;19986;-92
2022/09/23 00:58:14;;;;;;;;;;;;;;;8.38;59.65;100130.66;4368360;32;20396;-93
2022/09/23 01:00:40;;;;;;;;;;;;;;;8.42;59.65;100132.31;4368361;32;20339;-92
2022/09/23 01:03:05;;;;;;;;;;;;;;;8.53;59.66;100139.06;4369003;32;20390;-92
2022/09/23 01:05:31;;;;;;;;;;;;;;;8.34;59.64;100136.78;4369078;32;19986;-92
2022/09/23 01:07:56;;;;;;;;;;;;;;;8.40;59.65;100134.94;4368760;32;20077;-92
2022/09/23 01:10:22;;;;;;;;;;;;;;;8.16;59.64;100140.50;4368274;32;28441;-92
2022/09/23 01:12:56;;;;;;;;;;;;;;;8.18;59.63;100143.94;4368743;32;20037;-92
2022/09/23 01:15:40;;;;;;;;;;;;;;;8.37;59.64;100139.34;4381105;32;19989;-93
2022/09/23 01:18:28;;;;;;;;;;;;;;;8.52;59.66;100139.09;4381698;32;20332;-93
2022/09/23 01:21:12;;;;;;;;;;;;;;;8.43;59.64;100136.63;4369141;32;20040;-93
2022/09/23 01:24:29;;;;;;;;;;;;;;;;;;;;;
2022/09/23 01:27:06;;;;;;;;;;;;;;;8.24;59.64;100144.69;4394811;32;36706;-95
2022/09/23 01:29:47;;;;;;;;;;;;;;;8.13;59.63;100141.41;4370259;32;20029;-96
2022/09/23 01:32:15;;;;;;;;;;;;;;;7.99;59.63;100139.03;4382287;32;19990;-95
2022/09/23 01:34:48;;;;;;;;;;;;;;;8.13;59.63;100137.97;4382676;32;19994;-95
2022/09/23 01:37:19;;;;;;;;;;;;;;;7.98;59.62;100136.47;4369923;32;20762;-95
2022/09/23 01:40:22;;;;;;;;;;;;;;;7.92;59.62;100136.56;4383366;32;20028;-93
2022/09/23 01:43:09;;;;;;;;;;;;;;;7.86;59.62;100141.84;4319860;33;20461;-96
2022/09/23 01:45:40;;;;;;;;;;;;;;;7.73;59.61;100140.28;4375391;32;20602;-95
2022/09/23 01:48:09;;;;;;;;;;;;;;;7.74;59.61;100140.25;4370301;32;20042;-95
2022/09/23 01:53:50;;;;;;;;;;;;;;;;;;;;;
2022/09/23 01:56:21;;;;;;;;;;;;;;;7.74;59.61;100142.00;4395762;32;35087;-94
2022/09/23 01:59:05;;;;;;;;;;;;;;;7.78;59.61;100141.06;4371834;32;20743;-95
2022/09/23 02:01:50;;;;;;;;;;;;;;;7.70;59.62;100141.19;4385413;32;20621;-94
2022/09/23 02:04:21;;;;;;;;;;;;;;;7.74;59.61;100142.84;4393204;32;20054;-95
2022/09/23 02:06:49;;;;;;;;;;;;;;;7.70;59.61;100136.88;4384981;32;20680;-95
2022/09/23 02:09:15;;;;;;;;;;;;;;;7.80;59.61;100142.75;4382856;32;20035;-95
2022/09/23 02:11:42;;;;;;;;;;;;;;;7.82;59.61;100135.84;4367944;32;19983;-96
2022/09/23 02:14:14;;;;;;;;;;;;;;;7.70;59.61;100134.28;4370049;32;20744;-96
2022/09/23 02:16:46;;;;;;;;;;;;;;;7.64;59.61;100134.38;4382923;32;20009;-96
2022/09/23 02:19:14;;;;;;;;;;;;;;;7.67;59.60;100130.88;4382685;32;19942;-96
2022/09/23 02:21:40;;;;;;;;;;;;;;;7.59;59.60;100137.91;4382636;32;20029;-96
2022/09/23 02:24:08;;;;;;;;;;;;;;;7.49;59.60;100141.47;4382927;32;20001;-96
2022/09/23 02:27:12;;;;;;;;;;;;;;;7.41;59.60;100141.59;4382805;32;20010;-94
2022/09/23 02:29:50;;;;;;;;;;;;;;;7.47;59.60;100133.72;4365746;32;19982;-95
2022/09/23 02:32:25;;;;;;;;;;;;;;;7.37;59.59;100139.91;4394713;32;20524;-95
2022/09/23 02:35:06;;;;;;;;;;;;;;;7.46;59.59;100132.03;4369078;32;19990;-94
2022/09/23 02:37:51;;;;;;;;;;;;;;;7.74;59.61;100132.50;4382115;32;20002;-95
2022/09/23 02:43:34;;;;;;;;;;;;;;;7.55;59.60;100129.28;4387976;32;20001;-95
2022/09/23 02:46:03;;;;;;;;;;;;;;;7.49;59.60;100137.16;4369728;32;20007;-95
2022/09/23 02:48:30;;;;;;;;;;;;;;;7.30;59.58;100140.84;4370295;32;20061;-93
2022/09/23 02:50:56;;;;;;;;;;;;;;;7.14;59.57;100135.03;4382026;32;20005;-93
2022/09/23 02:53:22;;;;;;;;;;;;;;;7.20;59.58;100145.28;4369606;32;20003;-95
2022/09/23 02:55:48;;;;;;;;;;;;;;;7.21;59.58;100138.38;4369469;32;20026;-93
2022/09/23 03:01:14;;;;;;;;;;;;;;;7.11;59.58;100139.38;4382283;32;19951;-94
2022/09/23 03:03:40;;;;;;;;;;;;;;;7.08;59.57;100142.84;4375271;32;20256;-94
2022/09/23 03:06:23;;;;;;;;;;;;;;;7.02;59.56;100140.31;4376552;32;20033;-93
2022/09/23 03:09:11;;;;;;;;;;;;;;;7.20;59.58;100129.75;4369864;32;19995;-94
2022/09/23 03:11:37;;;;;;;;;;;;;;;7.11;59.58;100134.22;4373636;32;19974;-93
2022/09/23 03:14:24;;;;;;;;;;;;;;;7.43;59.59;100124.28;4381957;32;20045;-94
2022/09/23 03:16:51;;;;;;;;;;;;;;;7.19;59.58;100132.37;4367920;32;20609;-94
2022/09/23 03:19:19;;;;;;;;;;;;;;;7.05;59.57;100138.56;4382110;32;19998;-94
2022/09/23 03:21:45;;;;;;;;;;;;;;;7.19;59.58;100142.72;4381900;32;19967;-94
2022/09/23 03:24:13;;;;;;;;;;;;;;;7.15;59.57;100133.28;4370155;32;19958;-92
2022/09/23 03:26:38;;;;;;;;;;;;;;;7.34;59.59;100134.78;4371915;32;19967;-93
2022/09/23 03:29:04;;;;;;;;;;;;;;;7.04;59.57;100139.44;4376933;32;19982;-93
2022/09/23 03:31:30;;;;;;;;;;;;;;;7.18;59.58;100141.03;4386555;32;19987;-94
2022/09/23 03:33:56;;;;;;;;;;;;;;;7.16;59.57;100141.03;4381989;32;20040;-94
2022/09/23 03:36:50;;;;;;;;;;;;;;;7.13;59.58;100142.81;4366557;32;19987;-92
2022/09/23 03:39:21;;;;;;;;;;;;;;;7.07;59.57;100139.41;4370893;32;20004;-92
2022/09/23 03:41:49;;;;;;;;;;;;;;;7.15;59.57;100141.06;4382395;32;20319;-96
2022/09/23 03:44:14;;;;;;;;;;;;;;;7.26;59.58;100134.00;4381326;32;19978;-90
2022/09/23 03:47:08;;;;;;;;;;;;;;;7.32;59.58;100139.94;4365023;32;20023;-95
2022/09/23 03:49:34;;;;;;;;;;;;;;;7.51;59.60;100134.53;4373407;32;20001;-95
2022/09/23 03:52:01;;;;;;;;;;;;;;;7.57;59.60;100132.75;4383238;32;19986;-96
2022/09/23 03:58:02;;;;;;;;;;;;;;;7.27;59.58;100140.91;4384483;32;19987;-96
2022/09/23 04:03:02;;;;;;;;;;;;;;;7.16;59.58;100137.59;4634461;27;936935;-96
2022/09/23 04:05:47;;;;;;;;;;;;;;;7.22;59.57;100132.34;4370259;27;20001;-96
2022/09/23 04:08:25;;;;;;;;;;;;;;;7.26;59.58;100134.84;4376735;32;20001;-96
2022/09/23 04:11:15;;;;;;;;;;;;;;;7.21;59.58;100133.22;4392824;32;19963;-96
2022/09/23 04:14:21;;;;;;;;;;;;;;;6.94;59.56;100142.16;4438048;27;19965;-96
2022/09/23 04:17:17;;;;;;;;;;;;;;;7.00;59.56;100142.94;4375623;32;19964;-96
2022/09/23 04:19:55;;;;;;;;;;;;;;;7.12;59.58;100141.09;4390297;32;20001;-95
2022/09/23 04:22:23;;;;;;;;;;;;;;;7.22;59.58;100142.69;4405358;32;19958;-95
2022/09/23 04:25:02;;;;;;;;;;;;;;;7.12;59.58;100141.94;4391821;32;19946;-96
2022/09/23 04:27:34;;;;;;;;;;;;;;;7.14;59.57;100147.09;4406926;32;19993;-96
2022/09/23 04:30:01;;;;;;;;;;;;;;;6.86;59.56;100142.25;4404909;32;19959;-95
2022/09/23 04:32:27;;;;;;;;;;;;;;;6.77;59.55;100144.91;4368984;32;19991;-94
2022/09/23 04:34:52;;;;;;;;;;;;;;;7.02;59.56;100140.31;4367707;32;20065;-96
2022/09/23 04:37:17;;;;;;;;;;;;;;;6.98;59.57;100149.00;4356237;32;20017;-96
2022/09/23 04:39:43;;;;;;;;;;;;;;;7.06;59.57;100148.03;4356079;32;20041;-95
2022/09/23 04:42:09;;;;;;;;;;;;;;;7.02;59.57;100150.69;4372665;32;19990;-95
2022/09/23 04:44:35;;;;;;;;;;;;;;;7.17;59.57;100154.84;4370393;32;19978;-95
2022/09/23 04:47:03;;;;;;;;;;;;;;;7.24;59.58;100153.88;4369163;32;20001;-93
2022/09/23 04:49:31;;;;;;;;;;;;;;;7.34;59.59;100158.09;4355686;32;20083;-93
2022/09/23 04:51:56;;;;;;;;;;;;;;;7.14;59.57;100160.06;4356653;32;20045;-93
2022/09/23 04:54:21;;;;;;;;;;;;;;;7.11;59.58;100160.94;4372025;32;19978;-93
2022/09/23 04:56:47;;;;;;;;;;;;;;;7.14;59.57;100157.47;4361781;32;19985;-90
2022/09/23 04:59:12;;;;;;;;;;;;;;;7.05;59.57;100161.00;4367285;32;20026;-91
2022/09/23 05:01:38;;;;;;;;;;;;;;;7.11;59.58;100162.69;4354032;32;20026;-88
2022/09/23 05:04:04;;;;;;;;;;;;;;;7.04;59.57;100165.31;4353637;32;19979;-89
2022/09/23 05:06:30;;;;;;;;;;;;;;;7.30;59.58;100166.75;4365384;32;19979;-89
2022/09/23 05:08:56;;;;;;;;;;;;;;;7.28;59.58;100168.50;4353213;32;20002;-90
2022/09/23 05:11:21;;;;;;;;;;;;;;;7.46;59.59;100170.00;4353158;32;19999;-90
2022/09/23 05:13:47;;;;;;;;;;;;;;;7.50;59.60;100172.53;4353599;32;19974;-91
2022/09/23 05:16:12;;;;;;;;;;;;;;;7.67;59.60;100172.31;4365928;32;20018;-90
2022/09/23 05:18:39;;;;;;;;;;;;;;;7.68;59.60;100174.91;4352738;32;19982;-91
2022/09/23 05:21:05;;;;;;;;;;;;;;;7.83;59.61;100175.56;4352916;32;20013;-91
2022/09/23 05:23:30;;;;;;;;;;;;;;;7.63;59.61;100174.09;4352822;32;20003;-89
2022/09/23 05:25:57;;;;;;;;;;;;;;;7.65;59.60;100174.94;4365214;32;20005;-91
2022/09/23 05:28:23;;;;;;;;;;;;;;;7.70;59.61;100172.28;4352965;32;19982;-91
2022/09/23 05:30:48;;;;;;;;;;;;;;;7.95;59.62;100175.38;4362974;32;19998;-90
2022/09/23 05:33:13;;;;;;;;;;;;;;;7.95;59.63;100175.38;4352407;32;20004;-91
2022/09/23 05:35:45;;;;;;;;;;;;;;;7.96;59.62;100182.28;4364307;32;20002;-91
2022/09/23 05:38:10;;;;;;;;;;;;;;;8.10;59.63;100182.09;4377076;32;20694;-90
2022/09/23 05:40:35;;;;;;;;;;;;;;;8.16;59.63;100180.25;4351152;32;19995;-90
2022/09/23 05:43:01;;;;;;;;;;;;;;;8.20;59.63;100183.66;4364041;32;20055;-90
2022/09/23 05:45:26;;;;;;;;;;;;;;;8.16;59.63;100182.00;4364468;32;20006;-90
2022/09/23 05:47:51;;;;;;;;;;;;;;;8.41;59.65;100172.13;4351958;32;20002;-90
2022/09/23 05:50:16;;;;;;;;;;;;;;;8.45;59.65;100177.22;4364210;32;20042;-89
2022/09/23 05:52:42;;;;;;;;;;;;;;;8.58;59.65;100177.88;4351665;32;20026;-89
2022/09/23 05:55:07;;;;;;;;;;;;;;;8.71;59.66;100171.59;4363180;32;20324;-91
2022/09/23 05:57:33;;;;;;;;;;;;;;;8.77;59.67;100170.66;4364181;32;20021;-89
2022/09/23 05:59:58;;;;;;;;;;;;;;;8.89;59.67;100165.22;4364259;32;20238;-89
2022/09/23 06:02:23;;;;;;;;;;;;;;;8.97;59.67;100167.66;4364457;32;20277;-90
2022/09/23 06:04:51;;;;;;;;;;;;;;;9.07;59.68;100164.88;4351845;32;19990;-90
2022/09/23 06:07:19;;;;;;;;;;;;;;;9.30;59.70;100167.03;4364872;32;19999;-89
2022/09/23 06:09:44;;;;;;;;;;;;;;;9.50;59.70;100166.63;4362222;32;20006;-89
2022/09/23 06:12:09;;;;;;;;;;;;;;;9.49;59.71;100168.38;4351611;32;19995;-88
2022/09/23 06:14:35;;;;;;;;;;;;;;;9.65;59.72;100163.69;4365130;32;20005;-89
2022/09/23 06:17:01;;;;;;;;;;;;;;;9.59;59.71;100168.16;4375765;32;20486;-89
2022/09/23 06:19:26;;;;;;;;;;;;;;;9.74;59.72;100173.03;4367100;32;20091;-89
2022/09/23 06:21:51;;;;;;;;;;;;;;;9.98;59.73;100166.44;4363545;32;19947;-90
2022/09/23 06:24:16;;;;;;;;;;;;;;;10.08;59.73;100167.91;4366226;32;19975;-89
2022/09/23 06:26:42;;;;;;;;;;;;;;;10.14;59.74;100171.22;4364924;32;20602;-90
2022/09/23 06:29:10;;;;;;;;;;;;;;;10.16;59.74;100165.97;4351906;32;20005;-89
2022/09/23 06:31:36;;;;;;;;;;;;;;;10.34;59.75;100167.31;4351668;32;20449;-89
2022/09/23 06:34:01;;;;;;;;;;;;;;;10.60;59.76;100172.75;4363984;32;20026;-88
2022/09/23 06:36:26;;;;;;;;;;;;;;;10.58;59.76;100169.31;4363812;32;20058;-87
2022/09/23 06:38:51;;;;;;;;;;;;;;;10.76;59.78;100165.41;4364043;32;19998;-89
2022/09/23 06:41:19;;;;;;;;;;;;;;;10.84;59.79;100171.25;4364151;32;20027;-89
2022/09/23 06:43:44;;;;;;;;;;;;;;;10.90;59.78;100171.12;4352063;32;19982;-90
2022/09/23 06:46:14;;;;;;;;;;;;;;;10.89;59.78;100176.37;4350895;32;23080;-89
2022/09/23 06:48:40;;;;;;;;;;;;;;;11.07;59.79;100173.25;4363722;32;20026;-89
2022/09/23 06:51:06;;;;;;;;;;;;;;;10.99;59.79;100175.22;4351696;32;19979;-89
2022/09/23 06:53:31;;;;;;;;;;;;;;;11.18;59.80;100180.78;4351770;32;20627;-89
2022/09/23 06:56:01;;;;;;;;;;;;;;;11.48;59.81;100172.09;4352486;32;20015;-90
2022/09/23 06:58:27;;;;;;;;;;;;;;;11.65;59.82;100164.62;4352812;32;20006;-90
2022/09/23 07:00:52;;;;;;;;;;;;;;;11.94;59.84;100165.53;4365139;32;20297;-92
2022/09/23 07:03:18;;;;;;;;;;;;;;;11.95;59.84;100162.87;4353068;32;19970;-93
2022/09/23 07:05:43;;;;;;;;;;;;;;;12.05;59.84;100162.56;4350433;32;20103;-91
2022/09/23 07:08:09;;;;;;;;;;;;;;;12.43;59.86;100154.38;4354309;32;20009;-90
2022/09/23 07:10:34;;;;;;;;;;;;;;;12.60;59.87;100164.28;4384080;32;19983;-91
2022/09/23 07:13:00;;;;;;;;;;;;;;;12.77;59.89;100158.44;4354605;32;19987;-89
2022/09/23 07:15:26;;;;;;;;;;;;;;;12.84;59.89;100163.44;4376154;32;20012;-90
2022/09/23 07:17:51;;;;;;;;;;;;;;;12.80;59.88;100150.53;4363389;32;20312;-90
2022/09/23 07:20:17;;;;;;;;;;;;;;;12.90;59.89;100157.12;4350751;32;20009;-91
2022/09/23 07:22:43;;;;;;;;;;;;;;;13.18;59.90;100160.50;4375907;32;20316;-91
2022/09/23 07:25:08;;;;;;;;;;;;;;;13.39;59.92;100161.47;4363531;32;19998;-92
2022/09/23 07:27:36;;;;;;;;;;;;;;;13.45;59.93;100165.63;4351225;32;20317;-92
2022/09/23 07:30:01;;;;;;;;;;;;;;;13.61;59.93;100168.53;4351438;32;20039;-93
2022/09/23 07:32:26;;;;;;;;;;;;;;;13.84;59.94;100163.28;4351276;32;20272;-91
2022/09/23 07:34:52;;;;;;;;;;;;;;;13.73;59.94;100166.31;4363952;32;20041;-91
2022/09/23 07:37:17;;;;;;;;;;;;;;;13.90;59.95;100170.88;4363715;32;20014;-91
2022/09/23 07:39:43;;;;;;;;;;;;;;;13.90;59.95;100165.63;4364451;32;19991;-91
2022/09/23 07:42:09;;;;;;;;;;;;;;;14.08;59.95;100166.69;4364629;32;20333;-90
2022/09/23 07:44:34;;;;;;;;;;;;;;;14.41;59.98;100162.69;4380090;32;19969;-90
2022/09/23 07:46:59;;;;;;;;;;;;;;;14.40;59.97;100165.38;4362405;32;19963;-90
2022/09/23 07:49:25;;;;;;;;;;;;;;;14.39;59.97;100161.91;4355209;32;20017;-90
2022/09/23 07:51:51;;;;;;;;;;;;;;;14.48;59.98;100162.50;4351246;32;19991;-90
2022/09/23 07:54:17;;;;;;;;;;;;;;;14.60;59.98;100159.34;4363360;32;19986;-90
2022/09/23 07:56:42;;;;;;;;;;;;;;;14.77;59.99;100162.13;4351286;32;20014;-92
2022/09/23 07:59:08;;;;;;;;;;;;;;;14.97;60.00;100154.25;4363672;32;19989;-91
2022/09/23 08:01:34;;;;;;;;;;;;;;;15.24;60.02;100151.34;4351310;32;20590;-92
2022/09/23 08:04:01;;;;;;;;;;;;;;;15.44;60.03;100155.69;4351208;32;20114;-89
2022/09/23 08:06:26;;;;;;;;;;;;;;;15.43;60.03;100162.72;4351093;32;20426;-92
2022/09/23 08:08:52;;;;;;;;;;;;;;;15.26;60.02;100157.34;4351402;32;20002;-92
2022/09/23 08:11:17;;;;;;;;;;;;;;;15.46;60.02;100162.56;4363221;32;19987;-91
2022/09/23 08:13:42;;;;;;;;;;;;;;;15.58;60.04;100148.91;4363490;32;20341;-91
2022/09/23 08:16:08;;;;;;;;;;;;;;;15.93;60.05;100154.28;4350685;32;19998;-91
2022/09/23 08:18:33;;;;;;;;;;;;;;;15.88;60.05;100148.41;4363833;32;19987;-92
2022/09/23 08:20:58;;;;;;;;;;;;;;;16.07;60.06;100149.22;4352835;32;19983;-92
2022/09/23 08:23:24;;;;;;;;;;;;;;;16.33;60.08;100144.50;4378113;32;19998;-92
2022/09/23 08:25:56;;;;;;;;;;;;;;;16.31;60.07;100146.31;4352824;32;19991;-92
2022/09/23 08:28:22;;;;;;;;;;;;;;;16.51;60.08;100146.19;4365924;32;19989;-91
2022/09/23 08:30:47;;;;;;;;;;;;;;;16.43;60.08;100148.34;4352952;32;20039;-92
2022/09/23 08:33:12;;;;;;;;;;;;;;;16.58;60.09;100147.59;4352900;32;20360;-91
2022/09/23 08:35:38;;;;;;;;;;;;;;;16.37;60.08;100144.25;4352550;32;20037;-91
2022/09/23 08:38:03;;;;;;;;;;;;;;;16.48;60.08;100139.31;4378719;32;19983;-90
2022/09/23 08:40:29;;;;;;;;;;;;;;;16.61;60.09;100133.44;4352713;32;20030;-93
2022/09/23 08:42:54;;;;;;;;;;;;;;;16.96;60.11;100131.66;4353186;32;19990;-93
2022/09/23 08:45:20;;;;;;;;;;;;;;;16.97;60.11;100138.63;4353075;32;20297;-92
2022/09/23 08:47:55;;;;;;;;;;;;;;;16.99;60.11;100139.38;4352952;32;19997;-92
2022/09/23 08:50:21;;;;;;;;;;;;;;;17.24;60.13;100137.16;4379509;32;19979;-92
2022/09/23 08:52:59;;;;;;;;;;;;;;;17.29;60.13;100132.53;4352857;32;20089;-91
2022/09/23 08:55:34;;;;;;;;;;;;;;;17.36;60.13;100139.16;4355888;32;19998;-90
2022/09/23 08:58:20;;;;;;;;;;;;;;;17.28;60.13;100138.72;4376556;32;19951;-92
2022/09/23 09:01:06;;;;;;;;;;;;;;;17.33;60.13;100135.84;4365610;32;19999;-91
2022/09/23 09:03:35;;;;;;;;;;;;;;;17.58;60.14;100133.56;4379349;32;19959;-89
2022/09/23 09:06:00;;;;;;;;;;;;;;;17.59;60.14;100140.53;4354611;32;20062;-92
2022/09/23 09:08:32;;;;;;;;;;;;;;;17.40;60.14;100135.41;4366356;32;20009;-91
2022/09/23 09:10:58;;;;;;;;;;;;;;;17.58;60.14;100138.84;4360104;32;20030;-90
2022/09/23 09:13:30;;;;;;;;;;;;;;;17.59;60.14;100131.78;4360274;32;20043;-89
2022/09/23 09:16:08;;;;;;;;;;;;;;;17.57;60.15;100139.78;4365635;32;19991;-90
2022/09/23 09:18:33;;;;;;;;;;;;;;;17.73;60.16;100132.75;4378532;32;19977;-92
2022/09/23 09:21:04;;;;;;;;;;;;;;;18.09;60.18;100129.84;4352192;32;21052;-90
2022/09/23 09:23:46;;;;;;;;;;;;;;;18.22;60.17;100135.28;4365452;32;20307;-89
2022/09/23 09:26:16;;;;;;;;;;;;;;;18.20;60.17;100131.84;4366263;32;19994;-90
2022/09/23 09:28:41;;;;;;;;;;;;;;;18.06;60.17;100126.53;4352950;32;20011;-89
2022/09/23 09:31:17;;;;;;;;;;;;;;;18.25;60.18;100131.59;4352290;32;20038;-88
2022/09/23 09:33:46;;;;;;;;;;;;;;;18.37;60.18;100128.25;4378297;32;19982;-88
2022/09/23 09:36:20;;;;;;;;;;;;;;;18.53;60.19;100118.53;4364482;32;20051;-91
2022/09/23 09:38:46;;;;;;;;;;;;;;;18.49;60.19;100124.91;4364705;32;19983;-91
2022/09/23 09:41:15;;;;;;;;;;;;;;;18.81;60.21;100112.47;4352122;32;19989;-88
2022/09/23 09:43:41;;;;;;;;;;;;;;;19.00;60.21;100106.94;4352497;32;19995;-90
2022/09/23 09:46:22;;;;;;;;;;;;;;;19.18;60.23;100107.59;4368171;32;20008;-89
2022/09/23 09:48:55;;;;;;;;;;;;;;;19.38;60.25;100107.19;4351809;32;20000;-91
2022/09/23 09:51:23;;;;;;;;;;;;;;;19.58;60.25;100100.69;4349110;32;20329;-88
2022/09/23 09:53:51;;;;;;;;;;;;;;;19.78;60.27;100095.00;4364245;32;20339;-89
2022/09/23 09:56:16;;;;;;;;;;;;;;;19.93;60.27;100094.00;4351682;32;20006;-89
2022/09/23 09:58:48;;;;;;;;;;;;;;;20.19;60.28;100088.78;4363919;32;20018;-89
2022/09/23 10:01:21;;;;;;;;;;;;;;;20.35;60.29;100086.84;4363863;32;19994;-89
2022/09/23 10:03:46;;;;;;;;;;;;;;;20.41;60.30;100088.25;4364231;32;20025;-86
2022/09/23 10:06:12;;;;;;;;;;;;;;;20.75;60.31;100081.50;4377992;32;19979;-86
2022/09/23 10:08:38;;;;;;;;;;;;;;;20.66;60.30;100087.44;4354022;32;20343;-86
2022/09/23 10:11:04;;;;;;;;;;;;;;;20.81;60.32;100079.28;4352482;32;20011;-88
2022/09/23 10:13:29;;;;;;;;;;;;;;;20.99;60.33;100084.25;4376324;32;19987;-88
2022/09/23 10:15:55;;;;;;;;;;;;;;;20.81;60.32;100084.56;4351787;32;19982;-87
2022/09/23 10:18:47;;;;;;;;;;;;;;;20.65;60.31;100076.00;4351927;32;20726;-86
2022/09/23 10:21:16;;;;;;;;;;;;;;;20.81;60.32;100076.62;4375883;32;19967;-87
2022/09/23 10:23:42;;;;;;;;;;;;;;;21.11;60.33;100078.94;4352103;32;20344;-86
2022/09/23 10:26:09;;;;;;;;;;;;;;;21.45;60.35;100073.94;4352019;32;19983;-85
2022/09/23 10:28:40;;;;;;;;;;;;;;;21.73;60.37;100075.41;4378197;32;19974;-86
2022/09/23 10:31:06;;;;;;;;;;;;;;;21.84;60.37;100077.31;4364604;32;20037;-86
2022/09/23 10:33:32;;;;;;;;;;;;;;;21.83;60.37;100076.44;4353634;32;19967;-88
2022/09/23 10:35:57;;;;;;;;;;;;;;;21.76;60.37;100078.69;4366207;32;22978;-86
2022/09/23 10:38:22;;;;;;;;;;;;;;;21.99;60.38;100084.09;4366089;32;19983;-86
2022/09/23 10:49:12;;;;;;;;;;;;;;;22.42;60.41;100065.84;4366202;32;20031;-85
2022/09/23 10:51:38;;;;;;;;;;;;;;;22.26;60.40;100060.87;4377935;32;20316;-87
2022/09/23 10:54:17;;;;;;;;;;;;;;;22.40;60.40;100066.94;4379272;32;19994;-86
2022/09/23 10:56:43;;;;;;;;;;;;;;;21.94;60.37;100067.69;4365452;32;20073;-87
2022/09/23 10:59:18;;;;;;;;;;;;;;;22.00;60.38;100072.53;4351362;32;19971;-86
2022/09/23 11:01:49;;;;;;;;;;;;;;;21.97;60.39;100067.47;4351553;32;19986;-87
2022/09/23 11:04:15;;;;;;;;;;;;;;;21.98;60.38;100066.50;4364042;32;20004;-86
2022/09/23 11:06:50;;;;;;;;;;;;;;;21.95;60.39;100064.09;4377565;32;19983;-86
2022/09/23 11:09:39;;;;;;;;;;;;;;;22.04;60.39;100068.75;4364163;32;19987;-86
2022/09/23 11:12:20;;;;;;;;;;;;;;;21.78;60.37;100064.50;4363613;32;20323;-87
2022/09/23 11:14:51;;;;;;;;;;;;;;;21.82;60.38;100066.81;4377530;32;19994;-87
2022/09/23 11:17:39;;;;;;;;;;;;;;;22.00;60.38;100067.25;4377184;32;20005;-86
2022/09/23 11:20:24;;;;;;;;;;;;;;;21.87;60.38;100063.81;4363731;32;20612;-87
2022/09/23 11:22:52;;;;;;;;;;;;;;;21.91;60.38;100057.31;4377744;32;20354;-87
2022/09/23 11:25:17;;;;;;;;;;;;;;;21.86;60.38;100054.19;4377536;32;19979;-86
2022/09/23 11:27:57;;;;;;;;;;;;;;;21.87;60.38;100056.72;4377578;32;19987;-87
2022/09/23 11:30:22;;;;;;;;;;;;;;;21.87;60.38;100053.22;4363659;32;19971;-86
2022/09/23 11:33:03;;;;;;;;;;;;;;;21.82;60.38;100042.97;4362366;32;37007;-86
2022/09/23 11:35:31;;;;;;;;;;;;;;;21.86;60.38;100041.78;4377206;32;19995;-87
2022/09/23 11:38:04;;;;;;;;;;;;;;;21.67;60.37;100044.94;4377583;32;20417;-86
2022/09/23 11:40:30;;;;;;;;;;;;;;;21.81;60.38;100038.62;4362907;32;20036;-85
2022/09/23 11:42:55;;;;;;;;;;;;;;;22.09;60.39;100037.44;4376830;32;19983;-85
2022/09/23 11:45:24;;;;;;;;;;;;;;;22.25;60.40;100032.69;4377080;32;20055;-85
2022/09/23 11:47:54;;;;;;;;;;;;;;;22.30;60.40;100030.53;4361332;32;19990;-85
2022/09/23 11:50:26;;;;;;;;;;;;;;;22.36;60.40;100024.75;4362497;32;19986;-85
2022/09/23 11:53:02;;;;;;;;;;;;;;;22.23;60.40;100026.63;4363102;32;19994;-85
2022/09/23 11:55:30;;;;;;;;;;;;;;;22.20;60.40;100024.19;4364585;32;19990;-84
2022/09/23 11:58:04;;;;;;;;;;;;;;;22.17;60.39;100027.09;4352591;32;19999;-85
2022/09/23 12:00:33;;;;;;;;;;;;;;;22.05;60.39;100026.22;4377698;32;20014;-86
2022/09/23 12:02:58;;;;;;;;;;;;;;;21.96;60.39;100028.66;4365397;32;20094;-85
2022/09/23 12:05:24;;;;;;;;;;;;;;;21.87;60.39;100018.75;4378315;32;20035;-85
2022/09/23 12:08:02;;;;;;;;;;;;;;;21.87;60.39;100016.13;4366088;32;19999;-85
2022/09/23 12:10:41;;;;;;;;;;;;;;;22.28;60.41;100013.87;4366816;32;20044;-85
2022/09/23 12:13:10;;;;;;;;;;;;;;;22.29;60.40;100010.25;4353228;32;20041;-85
2022/09/23 12:15:54;;;;;;;;;;;;;;;22.47;60.41;100007.13;4376940;32;20530;-85
2022/09/23 12:18:38;;;;;;;;;;;;;;;22.52;60.42;99995.22;4378427;32;20336;-85
2022/09/23 12:21:10;;;;;;;;;;;;;;;22.56;60.42;99995.84;4369714;32;20348;-86
2022/09/23 12:23:49;;;;;;;;;;;;;;;22.70;60.42;99986.78;4365110;32;19994;-87
2022/09/23 12:26:37;;;;;;;;;;;;;;;22.54;60.41;99984.50;4365246;32;19982;-87
2022/09/23 12:29:31;;;;;;;;;;;;;;;22.46;60.41;99981.56;4372955;32;19987;-86
2022/09/23 12:31:57;;;;;;;;;;;;;;;22.47;60.41;99985.91;4378110;32;19992;-85
2022/09/23 12:34:51;;;;;;;;;;;;;;;22.52;60.41;99989.94;4360434;32;19983;-87
2022/09/23 12:37:24;;;;;;;;;;;;;;;22.66;60.43;99973.75;4357269;32;20277;-85
2022/09/23 12:39:49;;;;;;;;;;;;;;;22.62;60.42;99971.47;4364384;32;20054;-86
2022/09/23 12:42:15;;;;;;;;;;;;;;;22.64;60.43;99966.88;4365555;32;24108;-87
2022/09/23 12:44:42;;;;;;;;;;;;;;;22.87;60.43;99967.75;4367048;32;19951;-85
2022/09/23 12:47:20;;;;;;;;;;;;;;;23.02;60.44;99965.69;4366449;32;20006;-85
2022/09/23 12:49:52;;;;;;;;;;;;;;;23.22;60.46;99956.97;4366315;32;20418;-85
2022/09/23 12:52:18;;;;;;;;;;;;;;;23.13;60.46;99952.38;4378525;32;19967;-83
2022/09/23 12:54:47;;;;;;;;;;;;;;;23.40;60.46;99955.44;4378981;32;19986;-85
2022/09/23 12:57:13;;;;;;;;;;;;;;;23.44;60.47;99953.41;4381258;32;19970;-85
2022/09/23 12:59:59;;;;;;;;;;;;;;;23.37;60.47;99946.88;4365366;32;20311;-85
2022/09/23 13:02:35;;;;;;;;;;;;;;;23.08;60.44;99943.97;4378179;32;19975;-86
2022/09/23 13:08:17;;;;;;;;;;;;;;;23.43;60.47;99936.62;4366742;32;20046;-84
2022/09/23 13:10:59;;;;;;;;;;;;;;;22.99;60.44;99940.25;4378441;32;20009;-86
2022/09/23 13:13:25;;;;;;;;;;;;;;;22.81;60.43;99937.25;4364220;32;19971;-86
2022/09/23 13:15:51;;;;;;;;;;;;;;;22.73;60.43;99937.00;4364100;32;20005;-84
2022/09/23 13:18:16;;;;;;;;;;;;;;;22.87;60.43;99930.59;4378070;32;19998;-86
2022/09/23 13:20:41;;;;;;;;;;;;;;;23.07;60.45;99929.00;4377602;32;20328;-85
2022/09/23 13:26:31;;;;;;;;;;;;;;;22.94;60.45;99935.28;4375311;32;19971;-85
2022/09/23 13:28:58;;;;;;;;;;;;;;;22.62;60.42;99937.81;4378367;32;20780;-84
2022/09/23 13:31:23;;;;;;;;;;;;;;;22.47;60.42;99938.16;4364771;32;19995;-85